Time;durP1;ratioP1;P1;durP2;ratioP2;P2;SDS_P1;SDS_P2;PMS_P1;PMS_P2;Temp;Humidity;BMP_temperature;BMP_pressure;BME280_temperature;BME280_humidity;BME280_pressure;Samples;Min_cycle;Max_cycle;Signal;HPM_P1;HPM_P2
2021/03/30 00:01:23;;;;;;;4.88;2.30;;;6.30;99.90;;;;;;5051637;28;20025;-72
2021/03/30 00:03:49;;;;;;;4.70;2.28;;;6.30;99.90;;;;;;5052122;28;20056;-72
2021/03/30 00:06:15;;;;;;;3.10;2.13;;;6.30;99.90;;;;;;5051881;28;20111;-72
2021/03/30 00:08:41;;;;;;;3.03;2.15;;;6.30;99.90;;;;;;5051743;28;20056;-72
2021/03/30 00:11:07;;;;;;;2.97;1.85;;;6.20;99.90;;;;;;5051483;28;20448;-72
2021/03/30 00:13:33;;;;;;;3.67;1.83;;;6.10;99.90;;;;;;5084134;28;20483;-72
2021/03/30 00:15:59;;;;;;;3.65;2.00;;;6.10;99.90;;;;;;5050362;28;20082;-72
2021/03/30 00:18:25;;;;;;;3.80;1.90;;;6.00;99.90;;;;;;5051138;28;20544;-72
2021/03/30 00:20:51;;;;;;;3.75;2.10;;;6.00;99.90;;;;;;5049423;28;20045;-72
2021/03/30 00:23:17;;;;;;;4.50;1.65;;;5.90;99.90;;;;;;5051488;28;20029;-72
2021/03/30 00:25:42;;;;;;;2.67;1.63;;;5.90;99.90;;;;;;5050156;28;20079;-72
2021/03/30 00:28:08;;;;;;;3.28;2.17;;;5.90;99.90;;;;;;5050003;28;20044;-73
2021/03/30 00:30:34;;;;;;;3.80;1.70;;;5.90;99.90;;;;;;5051181;28;20036;-72
2021/03/30 00:33:00;;;;;;;3.90;2.13;;;5.90;99.90;;;;;;5051384;28;20040;-72
2021/03/30 00:35:26;;;;;;;3.13;1.70;;;5.90;99.90;;;;;;5051580;28;20061;-72
2021/03/30 00:37:52;;;;;;;2.03;1.52;;;6.00;99.90;;;;;;5050916;28;20040;-72
2021/03/30 00:40:18;;;;;;;4.65;2.10;;;6.00;99.90;;;;;;5051237;28;20104;-72
2021/03/30 00:42:44;;;;;;;6.43;2.65;;;6.00;99.90;;;;;;5050528;28;20128;-72
2021/03/30 00:45:11;;;;;;;4.20;2.40;;;6.00;99.90;;;;;;5049577;28;20100;-73
2021/03/30 00:47:41;;;;;;;4.38;2.20;;;6.00;99.90;;;;;;5050705;28;20028;-73
2021/03/30 00:50:09;;;;;;;3.85;2.00;;;6.00;99.90;;;;;;5049731;28;20028;-72
2021/03/30 00:52:37;;;;;;;5.78;2.85;;;6.00;99.90;;;;;;5049201;28;20029;-73
2021/03/30 00:55:13;;;;;;;6.63;2.30;;;6.00;99.90;;;;;;5050941;28;20044;-73
2021/03/30 00:57:43;;;;;;;4.30;2.13;;;5.90;99.90;;;;;;5048645;28;20060;-72
2021/03/30 01:00:11;;;;;;;4.47;2.58;;;5.80;99.90;;;;;;5048574;28;20041;-72
2021/03/30 01:02:37;;;;;;;5.78;2.70;;;5.80;99.90;;;;;;5048655;28;20418;-72
2021/03/30 01:05:05;;;;;;;3.78;2.28;;;5.80;99.90;;;;;;5050980;28;20891;-72
2021/03/30 01:07:31;;;;;;;3.22;2.33;;;5.80;99.90;;;;;;5050523;28;20029;-72
2021/03/30 01:10:06;;;;;;;4.45;2.33;;;5.70;99.90;;;;;;5050821;28;20048;-72
2021/03/30 01:12:53;;;;;;;4.63;2.23;;;5.70;99.90;;;;;;5049100;28;20558;-72
2021/03/30 01:15:43;;;;;;;3.35;2.10;;;5.70;99.90;;;;;;5082717;28;20758;-72
2021/03/30 01:18:17;;;;;;;1.85;1.63;;;5.60;99.90;;;;;;5050490;28;20402;-72
2021/03/30 01:21:11;;;;;;;5.15;2.15;;;5.60;99.90;;;;;;5050351;28;20029;-72
2021/03/30 01:23:46;;;;;;;3.78;1.92;;;5.50;99.90;;;;;;5050370;28;20100;-72
2021/03/30 01:26:42;;;;;;;4.18;2.63;;;5.40;99.90;;;;;;5050010;28;20033;-72
2021/03/30 01:29:53;;;;;;;3.92;2.30;;;5.40;99.90;;;;;;5050708;28;20115;-72
2021/03/30 01:32:28;;;;;;;4.72;2.25;;;5.30;99.90;;;;;;5046809;28;20053;-72
2021/03/30 01:34:56;;;;;;;2.33;1.83;;;5.30;99.90;;;;;;5050393;28;20178;-72
2021/03/30 01:37:23;;;;;;;4.15;2.50;;;5.30;99.90;;;;;;5048373;28;20059;-73
2021/03/30 01:39:52;;;;;;;5.25;2.22;;;5.30;99.90;;;;;;5050287;28;20116;-72
2021/03/30 01:42:21;;;;;;;3.40;2.10;;;5.30;99.90;;;;;;5049819;28;20534;-72
2021/03/30 01:44:48;;;;;;;6.40;2.10;;;5.30;99.90;;;;;;5050058;28;20021;-72
2021/03/30 01:47:14;;;;;;;4.57;2.50;;;5.20;99.90;;;;;;5049952;28;20116;-72
2021/03/30 01:49:40;;;;;;;3.78;1.95;;;5.20;99.90;;;;;;5048975;28;20132;-72
2021/03/30 01:52:09;;;;;;;4.40;2.30;;;5.20;99.90;;;;;;5032180;28;20457;-72
2021/03/30 01:54:36;;;;;;;4.15;2.10;;;5.20;99.90;;;;;;5050121;28;20037;-72
2021/03/30 01:57:04;;;;;;;2.38;2.15;;;5.10;99.90;;;;;;5049649;28;20045;-72
2021/03/30 01:59:32;;;;;;;4.35;2.10;;;5.10;99.90;;;;;;5050202;28;20045;-72
2021/03/30 02:02:00;;;;;;;3.28;2.25;;;5.10;99.90;;;;;;5048471;28;20056;-72
2021/03/30 02:04:26;;;;;;;4.15;1.92;;;5.00;99.90;;;;;;5050261;28;20029;-72
2021/03/30 02:06:53;;;;;;;3.05;1.90;;;5.00;99.90;;;;;;5049702;28;20396;-72
2021/03/30 02:09:27;;;;;;;3.53;2.05;;;5.10;99.90;;;;;;5050079;28;20033;-72
2021/03/30 02:12:06;;;;;;;4.70;1.90;;;5.10;99.90;;;;;;5049604;28;20055;-72
2021/03/30 02:14:33;;;;;;;6.05;2.20;;;5.10;99.90;;;;;;5048868;28;20036;-72
2021/03/30 02:17:10;;;;;;;3.80;1.98;;;5.10;99.90;;;;;;5049434;28;20044;-72
2021/03/30 02:20:00;;;;;;;3.45;1.88;;;5.00;99.90;;;;;;5049825;28;20113;-72
2021/03/30 02:22:34;;;;;;;3.83;1.90;;;4.90;99.90;;;;;;5049502;28;20499;-72
2021/03/30 02:25:03;;;;;;;3.13;2.08;;;4.90;99.90;;;;;;5049863;28;20399;-72
2021/03/30 02:27:30;;;;;;;3.20;1.73;;;4.90;99.90;;;;;;5049424;28;20029;-72
2021/03/30 02:29:57;;;;;;;5.05;2.40;;;4.90;99.90;;;;;;5048578;28;20055;-72
2021/03/30 02:32:26;;;;;;;3.38;2.13;;;4.90;99.90;;;;;;5049225;28;20065;-72
2021/03/30 02:34:55;;;;;;;2.58;2.28;;;4.90;99.90;;;;;;5049903;28;20055;-72
2021/03/30 02:37:22;;;;;;;4.65;2.13;;;4.90;99.90;;;;;;5049351;28;20049;-72
2021/03/30 02:39:49;;;;;;;4.07;1.90;;;5.00;99.90;;;;;;5049759;28;20040;-72
2021/03/30 02:42:18;;;;;;;2.70;1.90;;;4.90;99.90;;;;;;5049466;28;20120;-72
2021/03/30 02:44:47;;;;;;;3.78;1.95;;;5.00;99.90;;;;;;5051080;28;20057;-72
2021/03/30 02:47:14;;;;;;;3.33;1.92;;;4.90;99.90;;;;;;5052398;28;20059;-72
2021/03/30 02:49:41;;;;;;;2.47;2.08;;;4.90;99.90;;;;;;5052318;28;20240;-73
2021/03/30 02:52:08;;;;;;;5.70;2.50;;;4.80;99.90;;;;;;5052774;28;20610;-72
2021/03/30 02:54:34;;;;;;;6.05;2.92;;;4.80;99.90;;;;;;5053145;28;20044;-72
2021/03/30 02:57:01;;;;;;;4.47;2.55;;;4.80;99.90;;;;;;5052946;28;20048;-72
2021/03/30 02:59:28;;;;;;;3.20;2.33;;;4.70;99.90;;;;;;5068264;28;20090;-72
2021/03/30 03:01:56;;;;;;;4.38;2.03;;;4.80;99.90;;;;;;5052676;28;20036;-72
2021/03/30 03:04:21;;;;;;;3.33;2.13;;;4.70;99.90;;;;;;5085185;28;20106;-72
2021/03/30 03:06:47;;;;;;;3.42;2.75;;;4.80;99.90;;;;;;5052689;28;20088;-72
2021/03/30 03:09:14;;;;;;;6.03;2.97;;;4.70;99.90;;;;;;5053125;28;20032;-72
2021/03/30 03:11:42;;;;;;;4.28;2.50;;;4.60;99.90;;;;;;5051326;28;20044;-72
2021/03/30 03:14:09;;;;;;;4.22;2.40;;;4.70;99.90;;;;;;5051380;28;20040;-72
2021/03/30 03:16:37;;;;;;;3.40;2.15;;;4.70;99.90;;;;;;5052545;28;20112;-72
2021/03/30 03:19:06;;;;;;;4.68;2.58;;;4.60;99.90;;;;;;5052810;28;20488;-72
2021/03/30 03:21:33;;;;;;;4.28;2.50;;;4.60;99.90;;;;;;5052384;28;20083;-72
2021/03/30 03:24:00;;;;;;;4.22;2.55;;;4.50;99.90;;;;;;5052469;28;20025;-72
2021/03/30 03:26:26;;;;;;;2.08;1.85;;;4.40;99.90;;;;;;5052307;28;20029;-72
2021/03/30 03:28:52;;;;;;;4.95;2.92;;;4.40;99.90;;;;;;5052658;28;20033;-72
2021/03/30 03:31:29;;;;;;;8.68;2.47;;;4.30;99.90;;;;;;5051728;28;20044;-72
2021/03/30 03:34:01;;;;;;;4.85;2.05;;;4.20;99.90;;;;;;5048935;28;20120;-72
2021/03/30 03:36:35;;;;;;;4.30;2.42;;;4.20;99.90;;;;;;5052139;28;20112;-72
2021/03/30 03:39:00;;;;;;;4.18;2.97;;;4.10;99.90;;;;;;5052140;28;20033;-72
2021/03/30 03:41:26;;;;;;;7.38;2.15;;;4.10;99.90;;;;;;5052024;28;20051;-72
2021/03/30 03:43:52;;;;;;;5.53;2.33;;;4.00;99.90;;;;;;5050139;28;20024;-72
2021/03/30 03:46:17;;;;;;;3.05;1.92;;;3.90;99.90;;;;;;5034626;28;20029;-72
2021/03/30 03:48:43;;;;;;;3.65;2.17;;;3.90;99.90;;;;;;5032449;28;20113;-72
2021/03/30 03:51:11;;;;;;;3.83;2.40;;;3.80;99.90;;;;;;5031814;28;20455;-72
2021/03/30 03:53:38;;;;;;;5.53;2.50;;;3.80;99.90;;;;;;5031980;28;20091;-72
2021/03/30 03:56:04;;;;;;;4.53;2.72;;;3.90;99.90;;;;;;5031331;28;20113;-72
2021/03/30 03:58:38;;;;;;;3.25;2.13;;;3.80;99.90;;;;;;5031895;28;20060;-72
2021/03/30 04:01:09;;;;;;;5.80;2.40;;;3.90;99.90;;;;;;5031734;28;20030;-72
2021/03/30 04:03:52;;;;;;;3.20;2.08;;;3.80;99.90;;;;;;5048801;28;20048;-72
2021/03/30 04:06:22;;;;;;;3.35;2.20;;;3.80;99.90;;;;;;5051866;28;20025;-72
2021/03/30 04:08:55;;;;;;;5.90;2.20;;;3.80;99.90;;;;;;5050668;28;20025;-72
2021/03/30 04:11:23;;;;;;;6.30;2.10;;;3.80;99.90;;;;;;5031513;28;20033;-72
2021/03/30 04:13:50;;;;;;;3.80;2.13;;;3.80;99.90;;;;;;5030695;28;20082;-72
2021/03/30 04:16:17;;;;;;;2.85;1.92;;;3.80;99.90;;;;;;5030490;28;20395;-72
2021/03/30 04:18:43;;;;;;;4.47;1.90;;;3.70;99.90;;;;;;5031774;28;20029;-72
2021/03/30 04:21:23;;;;;;;6.10;2.83;;;3.80;99.90;;;;;;5031164;28;20107;-72
2021/03/30 04:23:51;;;;;;;5.85;1.95;;;3.70;99.90;;;;;;5031527;28;20044;-72
2021/03/30 04:26:16;;;;;;;4.10;2.55;;;3.70;99.90;;;;;;5063589;28;20030;-72
2021/03/30 04:28:42;;;;;;;4.50;2.70;;;3.70;99.90;;;;;;5047141;28;20377;-72
2021/03/30 04:31:08;;;;;;;9.02;2.85;;;3.70;99.90;;;;;;5029693;28;20061;-72
2021/03/30 04:33:33;;;;;;;2.58;2.17;;;3.70;99.90;;;;;;5031569;28;20032;-72
2021/03/30 04:35:59;;;;;;;3.67;2.30;;;3.60;99.90;;;;;;5047140;28;20017;-72
2021/03/30 04:38:25;;;;;;;5.40;2.13;;;3.70;99.90;;;;;;5065125;28;20032;-72
2021/03/30 04:40:53;;;;;;;3.70;2.42;;;3.70;99.90;;;;;;5050084;28;20032;-72
2021/03/30 04:43:20;;;;;;;5.75;2.45;;;3.70;99.90;;;;;;5051098;28;20436;-72
2021/03/30 04:45:46;;;;;;;4.70;2.72;;;3.70;99.90;;;;;;5050363;28;20031;-72
2021/03/30 04:48:11;;;;;;;5.10;2.60;;;3.70;99.90;;;;;;5036893;28;20519;-72
2021/03/30 04:50:37;;;;;;;4.18;2.40;;;3.70;99.90;;;;;;5050311;28;20041;-72
2021/03/30 04:53:03;;;;;;;3.78;2.40;;;3.70;99.90;;;;;;5048763;28;20043;-72
2021/03/30 04:55:28;;;;;;;3.50;2.47;;;3.70;99.90;;;;;;5050941;28;20404;-72
2021/03/30 04:57:54;;;;;;;5.97;2.30;;;3.70;99.90;;;;;;5050329;28;20042;-72
2021/03/30 05:00:20;;;;;;;6.75;2.17;;;3.80;99.90;;;;;;5050743;28;20025;-72
2021/03/30 05:02:46;;;;;;;4.00;2.45;;;3.70;99.90;;;;;;5050509;28;20052;-72
2021/03/30 05:05:12;;;;;;;3.95;2.10;;;3.70;99.90;;;;;;5049516;28;20606;-72
2021/03/30 05:07:37;;;;;;;4.97;2.00;;;3.70;99.90;;;;;;5082461;28;20116;-72
2021/03/30 05:10:05;;;;;;;6.70;2.45;;;3.70;99.90;;;;;;5050703;28;20116;-72
2021/03/30 05:12:31;;;;;;;3.85;2.30;;;3.70;99.90;;;;;;5050088;28;20025;-72
2021/03/30 05:14:57;;;;;;;3.80;2.25;;;3.70;99.90;;;;;;5049341;28;20266;-72
2021/03/30 05:17:23;;;;;;;4.22;2.47;;;3.70;99.90;;;;;;5032575;28;20028;-72
2021/03/30 05:19:49;;;;;;;4.70;2.15;;;3.70;99.90;;;;;;5049573;28;20565;-72
2021/03/30 05:22:14;;;;;;;5.68;2.80;;;3.70;99.90;;;;;;5049216;28;20032;-72
2021/03/30 05:24:40;;;;;;;4.82;2.60;;;3.70;99.90;;;;;;5050600;28;20025;-72
2021/03/30 05:27:07;;;;;;;3.35;2.28;;;3.70;99.90;;;;;;5049570;28;20025;-72
2021/03/30 05:29:43;;;;;;;6.63;2.45;;;3.70;99.90;;;;;;5050799;28;20029;-72
2021/03/30 05:32:17;;;;;;;4.72;2.75;;;3.70;99.90;;;;;;5048289;28;20078;-73
2021/03/30 05:34:47;;;;;;;7.47;2.72;;;3.80;99.90;;;;;;5050375;28;20039;-72
2021/03/30 05:37:13;;;;;;;6.55;2.88;;;3.80;99.90;;;;;;5049926;28;20020;-72
2021/03/30 05:39:39;;;;;;;4.20;2.65;;;3.80;99.90;;;;;;5049909;28;20029;-72
2021/03/30 05:42:06;;;;;;;5.25;2.80;;;3.90;99.90;;;;;;5049624;28;20026;-72
2021/03/30 05:44:32;;;;;;;4.35;2.60;;;4.00;99.90;;;;;;5049077;28;20029;-72
2021/03/30 05:47:14;;;;;;;2.88;2.13;;;4.10;99.90;;;;;;5048630;28;20119;-72
2021/03/30 05:49:41;;;;;;;3.42;2.10;;;4.10;99.90;;;;;;5050217;28;20059;-72
2021/03/30 05:52:15;;;;;;;5.88;2.53;;;4.20;99.90;;;;;;5049514;28;20041;-72
2021/03/30 05:54:45;;;;;;;4.30;2.40;;;4.30;99.90;;;;;;5050238;28;20488;-72
2021/03/30 05:57:12;;;;;;;3.75;2.53;;;4.50;99.90;;;;;;5049836;28;20090;-72
2021/03/30 05:59:41;;;;;;;3.42;2.10;;;4.80;99.90;;;;;;5050288;28;20039;-72
2021/03/30 06:02:34;;;;;;;7.07;1.90;;;5.30;99.90;;;;;;5049575;28;20029;-72
2021/03/30 06:05:01;;;;;;;4.60;2.80;;;5.70;99.90;;;;;;5050062;28;20112;-72
2021/03/30 06:07:29;;;;;;;5.15;2.30;;;6.20;99.90;;;;;;5049667;28;20017;-72
2021/03/30 06:09:55;;;;;;;3.70;2.03;;;6.60;99.90;;;;;;5049955;28;20029;-72
2021/03/30 06:12:20;;;;;;;4.30;1.90;;;7.00;99.90;;;;;;5049309;28;20052;-72
2021/03/30 06:14:48;;;;;;;6.32;2.20;;;7.40;99.90;;;;;;5049324;28;20033;-72
2021/03/30 06:17:16;;;;;;;4.30;2.22;;;7.80;99.90;;;;;;5052591;28;20055;-72
2021/03/30 06:19:54;;;;;;;2.58;1.77;;;8.10;99.90;;;;;;5058343;28;20119;-72
2021/03/30 06:22:21;;;;;;;3.63;2.00;;;8.30;99.90;;;;;;5060887;28;20119;-72
2021/03/30 06:24:47;;;;;;;5.65;2.40;;;8.60;99.90;;;;;;5063665;28;20037;-72
2021/03/30 06:27:17;;;;;;;4.75;2.30;;;8.90;99.90;;;;;;5059763;28;20083;-72
2021/03/30 06:29:43;;;;;;;3.53;2.25;;;9.10;99.90;;;;;;5062784;28;20029;-72
2021/03/30 06:32:13;;;;;;;4.75;2.20;;;9.40;99.90;;;;;;5061526;28;20033;-72
2021/03/30 06:34:42;;;;;;;3.75;2.40;;;9.60;99.90;;;;;;5058315;28;20021;-72
2021/03/30 06:37:26;;;;;;;3.33;2.00;;;9.80;99.90;;;;;;5055910;28;20052;-72
2021/03/30 06:39:53;;;;;;;3.58;1.77;;;10.00;99.90;;;;;;5064046;28;20020;-72
2021/03/30 06:42:37;;;;;;;2.42;2.13;;;10.20;99.90;;;;;;5056412;28;20491;-72
2021/03/30 06:45:10;;;;;;;3.00;2.03;;;10.30;99.90;;;;;;5052798;28;20029;-72
2021/03/30 06:47:37;;;;;;;6.72;2.00;;;10.40;99.90;;;;;;5054394;28;20120;-72
2021/03/30 06:50:09;;;;;;;4.15;1.98;;;10.60;99.90;;;;;;5057031;28;20116;-72
2021/03/30 06:52:37;;;;;;;4.32;2.13;;;10.80;99.90;;;;;;5057875;28;20024;-72
2021/03/30 06:55:11;;;;;;;3.45;1.90;;;11.10;99.90;;;;;;5057171;28;20032;-72
2021/03/30 06:57:40;;;;;;;1.85;1.60;;;11.40;99.90;;;;;;5088051;28;20683;-72
2021/03/30 07:00:18;;;;;;;4.45;1.95;;;11.70;99.90;;;;;;5052264;28;20033;-72
2021/03/30 07:02:49;;;;;;;4.07;2.30;;;11.90;99.90;;;;;;5055129;28;20104;-72
2021/03/30 07:05:21;;;;;;;5.70;1.73;;;12.20;99.90;;;;;;5060273;28;20543;-72
2021/03/30 07:07:51;;;;;;;2.80;1.60;;;12.40;99.90;;;;;;5057906;28;20044;-72
2021/03/30 07:10:17;;;;;;;4.78;1.70;;;12.70;98.20;;;;;;5061290;28;20035;-72
2021/03/30 07:12:45;;;;;;;3.00;2.00;;;12.90;97.50;;;;;;5062649;28;20025;-72
2021/03/30 07:15:11;;;;;;;3.15;2.00;;;13.00;95.00;;;;;;5058308;28;20029;-72
2021/03/30 07:17:40;;;;;;;3.80;2.40;;;13.10;95.00;;;;;;5053549;28;20045;-72
2021/03/30 07:20:07;;;;;;;7.30;2.40;;;13.10;94.30;;;;;;5054986;28;20041;-72
2021/03/30 07:22:36;;;;;;;2.85;2.15;;;13.20;96.30;;;;;;5060704;28;20025;-72
2021/03/30 07:25:05;;;;;;;3.75;2.45;;;13.30;96.60;;;;;;5056319;28;20437;-72
2021/03/30 07:27:59;;;;;;;3.08;2.10;;;13.50;94.40;;;;;;5058809;28;20448;-73
2021/03/30 07:30:25;;;;;;;5.78;2.90;;;13.70;95.40;;;;;;5060613;28;20373;-72
2021/03/30 07:33:03;;;;;;;3.28;2.92;;;13.90;93.00;;;;;;5059945;28;20052;-72
2021/03/30 07:35:33;;;;;;;6.35;2.13;;;14.20;93.10;;;;;;5057234;28;20065;-73
2021/03/30 07:38:22;;;;;;;3.63;2.30;;;14.40;93.30;;;;;;5053407;28;20032;-72
2021/03/30 07:40:48;;;;;;;4.10;2.58;;;14.70;90.70;;;;;;5050500;28;20041;-73
2021/03/30 07:43:25;;;;;;;2.78;2.13;;;14.80;90.80;;;;;;5060313;28;20108;-73
2021/03/30 07:45:53;;;;;;;5.60;2.97;;;15.00;90.00;;;;;;5051070;28;20029;-72
2021/03/30 07:48:20;;;;;;;5.10;2.90;;;15.20;90.50;;;;;;5060476;28;20106;-72
2021/03/30 07:50:52;;;;;;;8.13;3.10;;;15.40;84.00;;;;;;5059801;28;20032;-72
2021/03/30 07:53:36;;;;;;;6.40;3.20;;;15.50;84.30;;;;;;5057702;28;20033;-72
2021/03/30 07:56:02;;;;;;;5.97;2.80;;;15.50;83.60;;;;;;5046011;28;20028;-71
2021/03/30 07:58:41;;;;;;;4.90;3.35;;;15.60;81.30;;;;;;5052143;28;20032;-72
2021/03/30 08:01:08;;;;;;;4.13;2.85;;;15.60;80.10;;;;;;5054975;28;20041;-71
2021/03/30 08:03:35;;;;;;;6.28;2.70;;;15.60;78.50;;;;;;5054996;28;20036;-71
2021/03/30 08:06:08;;;;;;;7.03;3.05;;;15.50;77.50;;;;;;5056997;28;20422;-73
2021/03/30 08:08:51;;;;;;;6.75;3.00;;;15.50;80.90;;;;;;5055192;28;20075;-72
2021/03/30 08:11:36;;;;;;;4.68;2.60;;;15.50;76.80;;;;;;5051706;28;20475;-73
2021/03/30 08:14:03;;;;;;;3.85;2.83;;;15.30;71.20;;;;;;5055582;28;20052;-73
2021/03/30 08:16:29;;;;;;;7.38;2.80;;;15.10;72.20;;;;;;5054205;28;20500;-73
2021/03/30 08:18:58;;;;;;;7.22;3.20;;;15.00;74.30;;;;;;5054157;28;20483;-73
2021/03/30 08:21:24;;;;;;;4.95;2.97;;;14.90;75.50;;;;;;5049915;28;20021;-73
2021/03/30 08:23:53;;;;;;;5.40;2.78;;;14.80;77.10;;;;;;5043324;28;20499;-73
2021/03/30 08:26:27;;;;;;;3.45;2.70;;;14.80;82.00;;;;;;5049250;28;20537;-73
2021/03/30 08:28:55;;;;;;;5.20;3.22;;;14.90;79.20;;;;;;5048025;28;20047;-73
2021/03/30 08:31:35;;;;;;;8.50;3.63;;;14.80;79.80;;;;;;5049162;28;20553;-73
2021/03/30 08:34:04;;;;;;;5.68;2.78;;;14.80;76.20;;;;;;5051252;28;20078;-73
2021/03/30 08:36:43;;;;;;;6.25;3.67;;;14.80;79.70;;;;;;5051555;28;20399;-72
2021/03/30 08:39:10;;;;;;;4.80;3.17;;;14.90;80.80;;;;;;5053213;28;20033;-72
2021/03/30 08:41:42;;;;;;;9.85;4.00;;;15.00;80.60;;;;;;5088012;28;20052;-73
2021/03/30 08:44:13;;;;;;;4.25;2.83;;;15.00;78.80;;;;;;5054948;28;20031;-72
2021/03/30 08:46:40;;;;;;;8.02;3.25;;;15.00;74.90;;;;;;5051837;28;20032;-72
2021/03/30 08:49:33;;;;;;;7.18;3.17;;;14.80;76.40;;;;;;5055534;28;20028;-72
2021/03/30 08:52:13;;;;;;;7.50;3.22;;;14.60;77.90;;;;;;5052412;28;20033;-74
2021/03/30 08:54:53;;;;;;;6.03;3.30;;;14.50;77.20;;;;;;5056296;28;20592;-76
2021/03/30 08:57:26;;;;;;;5.07;3.08;;;14.40;76.10;;;;;;5055561;28;20025;-74
2021/03/30 08:59:52;;;;;;;4.25;2.92;;;14.40;79.00;;;;;;5054926;28;20033;-75
2021/03/30 09:02:26;;;;;;;5.65;3.38;;;14.40;80.30;;;;;;5053561;28;20024;-74
2021/03/30 09:04:52;;;;;;;6.40;3.53;;;14.50;81.50;;;;;;5065663;28;20055;-74
2021/03/30 09:07:18;;;;;;;6.75;3.47;;;14.50;80.20;;;;;;5055733;28;20029;-73
2021/03/30 09:09:46;;;;;;;7.38;3.15;;;14.60;77.00;;;;;;5055556;28;20033;-73
2021/03/30 09:12:18;;;;;;;6.18;3.45;;;14.60;78.00;;;;;;5055519;28;20048;-75
2021/03/30 09:15:01;;;;;;;5.90;3.42;;;14.60;75.50;;;;;;5054514;28;20032;-73
2021/03/30 09:17:28;;;;;;;7.80;3.55;;;14.70;76.40;;;;;;5047480;28;20041;-74
2021/03/30 09:19:55;;;;;;;7.47;3.55;;;14.70;76.90;;;;;;5051375;28;20117;-74
2021/03/30 09:22:34;;;;;;;5.40;3.60;;;14.80;76.30;;;;;;5049338;28;20025;-75
2021/03/30 09:27:40;;;;;;;10.27;4.32;;;15.00;73.80;;;;;;5054725;28;20029;-75
2021/03/30 09:30:09;;;;;;;8.50;4.55;;;15.10;74.80;;;;;;5055287;28;20035;-75
2021/03/30 09:32:38;;;;;;;8.75;3.35;;;15.10;72.90;;;;;;5054158;28;20047;-74
2021/03/30 09:35:10;;;;;;;8.63;3.90;;;15.20;71.50;;;;;;5081690;28;20028;-75
2021/03/30 09:37:49;;;;;;;6.78;3.30;;;15.30;76.70;;;;;;5052525;28;20098;-75
2021/03/30 09:40:26;;;;;;;5.93;2.88;;;15.40;66.60;;;;;;5053918;28;20092;-75
2021/03/30 09:42:52;;;;;;;4.28;2.58;;;15.40;70.10;;;;;;5047017;28;20503;-75
2021/03/30 09:45:25;;;;;;;4.25;2.70;;;15.50;71.10;;;;;;5080801;28;20031;-74
2021/03/30 09:47:51;;;;;;;8.85;3.70;;;15.50;69.20;;;;;;5050602;28;20059;-75
2021/03/30 09:50:21;;;;;;;5.82;3.03;;;15.70;72.90;;;;;;5053111;28;20029;-74
2021/03/30 09:52:48;;;;;;;7.50;3.83;;;15.80;72.30;;;;;;5048510;28;20036;-73
2021/03/30 09:55:53;;;;;;;8.65;3.75;;;16.00;68.80;;;;;;5059237;28;20111;-74
2021/03/30 09:58:20;;;;;;;7.78;3.63;;;16.20;66.30;;;;;;5051775;28;20033;-72
2021/03/30 10:00:47;;;;;;;8.57;3.60;;;16.20;68.00;;;;;;5052806;28;20390;-74
2021/03/30 10:03:14;;;;;;;8.30;4.00;;;16.30;63.70;;;;;;5060359;28;20024;-74
2021/03/30 10:05:42;;;;;;;9.20;3.45;;;16.40;63.50;;;;;;5052713;28;20668;-75
2021/03/30 10:08:19;;;;;;;5.80;3.58;;;16.50;63.20;;;;;;5049037;28;20025;-74
2021/03/30 10:10:55;;;;;;;7.70;3.70;;;16.50;64.20;;;;;;5055670;28;20035;-74
2021/03/30 10:13:35;;;;;;;7.00;3.75;;;16.60;64.00;;;;;;5076845;28;20665;-74
2021/03/30 10:16:07;;;;;;;12.82;3.70;;;16.80;60.40;;;;;;5052706;28;20036;-73
2021/03/30 10:18:34;;;;;;;7.75;3.80;;;16.90;58.70;;;;;;5047831;28;20036;-73
2021/03/30 10:21:12;;;;;;;9.32;4.05;;;17.10;58.00;;;;;;5051170;28;20064;-71
2021/03/30 10:23:48;;;;;;;8.60;3.83;;;17.10;57.90;;;;;;5056934;28;20122;-71
2021/03/30 10:26:16;;;;;;;10.88;4.75;;;17.20;59.30;;;;;;5048287;28;20750;-70
2021/03/30 10:28:51;;;;;;;7.82;3.72;;;17.30;56.70;;;;;;5079630;28;20134;-71
2021/03/30 10:31:37;;;;;;;8.43;4.30;;;17.40;57.00;;;;;;5047297;28;20456;-70
2021/03/30 10:34:19;;;;;;;;;;;17.50;57.40;;;;;;5049168;28;20048;-72
2021/03/30 10:36:45;;;;;;;7.35;3.78;;;17.50;56.40;;;;;;5050592;28;20557;-73
2021/03/30 10:39:11;;;;;;;6.97;3.92;;;17.50;57.40;;;;;;5052390;28;20041;-74
2021/03/30 10:41:38;;;;;;;8.75;4.25;;;17.60;56.50;;;;;;5056678;28;20029;-73
2021/03/30 10:44:06;;;;;;;9.00;4.20;;;17.60;58.10;;;;;;5053460;28;20522;-73
2021/03/30 10:46:42;;;;;;;10.30;4.47;;;17.70;54.30;;;;;;5051534;28;20032;-74
2021/03/30 10:49:08;;;;;;;8.27;4.18;;;17.80;53.80;;;;;;5042726;28;20052;-74
2021/03/30 10:51:36;;;;;;;8.48;4.30;;;17.80;55.30;;;;;;5052763;28;20037;-75
2021/03/30 10:54:04;;;;;;;11.77;4.57;;;17.90;53.40;;;;;;5053641;28;20078;-74
2021/03/30 10:56:33;;;;;;;7.32;4.05;;;18.00;54.90;;;;;;5055270;28;20033;-74
2021/03/30 10:58:59;;;;;;;9.18;4.18;;;18.00;52.00;;;;;;5051865;28;20033;-75
2021/03/30 11:01:25;;;;;;;7.80;3.40;;;18.10;51.90;;;;;;5051642;28;20024;-74
2021/03/30 11:03:51;;;;;;;10.23;4.05;;;18.20;55.40;;;;;;5055195;28;20031;-75
2021/03/30 11:06:17;;;;;;;9.13;4.50;;;18.20;56.10;;;;;;5050779;28;20024;-73
2021/03/30 11:08:43;;;;;;;10.35;3.75;;;18.40;51.70;;;;;;5053997;28;20063;-73
2021/03/30 11:11:09;;;;;;;10.52;4.57;;;18.50;51.60;;;;;;5055742;28;20447;-73
2021/03/30 11:13:36;;;;;;;7.68;3.83;;;18.60;54.40;;;;;;5057062;28;20021;-73
2021/03/30 11:16:02;;;;;;;7.65;3.80;;;18.70;51.70;;;;;;5052215;28;20403;-72
2021/03/30 11:18:27;;;;;;;7.43;3.80;;;18.80;50.10;;;;;;5053032;28;20039;-72
2021/03/30 11:20:53;;;;;;;6.70;3.22;;;18.80;51.10;;;;;;5054912;28;20127;-73
2021/03/30 11:23:19;;;;;;;10.82;3.70;;;18.90;51.90;;;;;;5052817;28;20035;-73
2021/03/30 11:25:44;;;;;;;5.72;3.47;;;19.00;51.20;;;;;;5055883;28;20593;-74
2021/03/30 11:28:12;;;;;;;7.93;3.55;;;19.10;52.80;;;;;;5053736;28;20029;-73
2021/03/30 11:30:59;;;;;;;7.45;3.40;;;19.10;50.00;;;;;;5057592;28;20055;-73
2021/03/30 11:33:30;;;;;;;8.05;3.97;;;19.20;51.00;;;;;;5051462;28;20033;-73
2021/03/30 11:35:59;;;;;;;7.50;3.72;;;19.40;49.00;;;;;;5055681;28;20025;-72
2021/03/30 11:38:25;;;;;;;6.18;4.05;;;19.40;49.10;;;;;;5048440;28;20155;-72
2021/03/30 11:40:50;;;;;;;5.68;3.17;;;19.40;48.90;;;;;;5051526;28;20553;-72
2021/03/30 11:43:17;;;;;;;5.05;2.45;;;19.50;52.90;;;;;;5053993;28;20082;-72
2021/03/30 11:45:43;;;;;;;7.68;4.05;;;19.60;54.00;;;;;;5059072;28;20024;-72
2021/03/30 11:48:09;;;;;;;5.25;3.47;;;19.70;47.00;;;;;;5059665;28;20525;-72
2021/03/30 11:50:35;;;;;;;6.57;3.17;;;19.80;47.90;;;;;;5052055;28;20033;-72
2021/03/30 11:53:01;;;;;;;5.07;3.00;;;19.90;49.10;;;;;;5085653;28;20790;-72
2021/03/30 11:55:26;;;;;;;5.32;2.72;;;20.10;48.30;;;;;;5037317;28;20028;-72
2021/03/30 11:57:53;;;;;;;6.45;2.83;;;20.20;47.60;;;;;;5056129;28;20029;-72
2021/03/30 12:00:20;;;;;;;4.57;2.03;;;20.30;48.70;;;;;;5059477;28;20154;-72
2021/03/30 12:02:47;;;;;;;4.10;2.63;;;20.40;39.80;;;;;;5059818;28;20067;-73
2021/03/30 12:05:13;;;;;;;4.15;2.67;;;20.40;39.30;;;;;;5054885;28;20025;-72
2021/03/30 12:07:39;;;;;;;4.25;2.67;;;20.40;43.10;;;;;;5053854;28;20107;-73
2021/03/30 12:10:06;;;;;;;3.42;2.35;;;20.40;39.90;;;;;;5059341;28;20125;-73
2021/03/30 12:12:32;;;;;;;3.65;2.22;;;20.50;44.30;;;;;;5056380;28;20037;-72
2021/03/30 12:14:58;;;;;;;4.43;2.78;;;20.60;43.80;;;;;;5053490;28;20094;-73
2021/03/30 12:17:24;;;;;;;7.93;5.97;;;20.70;44.00;;;;;;5055494;28;20056;-74
2021/03/30 12:19:50;;;;;;;9.90;6.15;;;20.60;40.30;;;;;;5054080;28;20031;-71
2021/03/30 12:22:17;;;;;;;5.82;3.08;;;20.60;42.60;;;;;;5022149;28;20033;-71
2021/03/30 12:24:43;;;;;;;32.58;29.83;;;20.60;46.50;;;;;;5087202;28;20025;-71
2021/03/30 12:27:09;;;;;;;3.78;3.30;;;20.70;44.10;;;;;;5053501;28;20029;-71
2021/03/30 12:29:36;;;;;;;11.60;9.93;;;20.80;44.20;;;;;;5054355;28;20017;-71
2021/03/30 12:32:02;;;;;;;7.20;6.50;;;20.90;43.10;;;;;;5050022;28;20060;-71
2021/03/30 12:34:28;;;;;;;3.58;2.08;;;20.90;46.40;;;;;;5055149;28;20064;-71
2021/03/30 12:36:53;;;;;;;4.00;2.90;;;21.10;46.20;;;;;;5058129;28;20601;-71
2021/03/30 12:39:19;;;;;;;3.75;2.78;;;21.10;42.70;;;;;;5056791;28;20041;-71
2021/03/30 12:41:45;;;;;;;4.45;2.30;;;21.10;43.40;;;;;;5056429;28;20034;-71
2021/03/30 12:44:11;;;;;;;3.58;2.15;;;21.10;42.00;;;;;;5054790;28;20029;-72
2021/03/30 12:46:37;;;;;;;4.97;2.28;;;21.10;43.10;;;;;;5055334;28;20036;-72
2021/03/30 12:49:03;;;;;;;13.60;9.07;;;21.00;39.90;;;;;;5053017;28;20037;-72
2021/03/30 12:51:29;;;;;;;17.50;8.18;;;21.00;42.00;;;;;;5055438;28;20023;-71
2021/03/30 12:53:58;;;;;;;12.93;4.90;;;20.90;40.40;;;;;;5050957;28;20025;-72
2021/03/30 12:56:23;;;;;;;6.57;3.00;;;20.90;40.30;;;;;;5054737;28;20052;-76
2021/03/30 12:58:49;;;;;;;4.55;2.42;;;20.80;41.30;;;;;;5052127;28;20067;-74
2021/03/30 13:01:15;;;;;;;4.85;3.45;;;20.80;42.50;;;;;;5050865;28;20048;-74
2021/03/30 13:03:41;;;;;;;5.70;2.63;;;20.90;42.80;;;;;;5054122;28;20721;-75
2021/03/30 13:06:06;;;;;;;3.60;2.45;;;20.90;42.70;;;;;;5054690;28;20059;-73
2021/03/30 13:08:32;;;;;;;4.35;2.45;;;20.90;40.90;;;;;;5055831;28;20036;-75